Time;durP1;ratioP1;P1;durP2;ratioP2;P2;SDS_P1;SDS_P2;PMS_P1;PMS_P2;Temp;Humidity;BMP_temperature;BMP_pressure;BME280_temperature;BME280_humidity;BME280_pressure;Samples;Min_cycle;Max_cycle;Signal;HPM_P1;HPM_P2
2022/03/13 00:00:54;;;;;;;21.65;12.02;;;2.30;99.90;;;;;;4877541;29;20072;-73
2022/03/13 00:03:23;;;;;;;21.38;13.43;;;2.30;99.90;;;;;;4891919;29;20044;-74
2022/03/13 00:05:53;;;;;;;20.63;13.98;;;2.30;99.90;;;;;;4895158;29;20512;-73
2022/03/13 00:08:26;;;;;;;18.50;12.30;;;2.30;99.90;;;;;;4895486;29;20056;-74
2022/03/13 00:10:57;;;;;;;;;;;2.30;99.90;;;;;;4889571;29;20056;-74
2022/03/13 00:13:31;;;;;;;16.60;12.10;;;2.30;99.90;;;;;;4909803;29;19950;-73
2022/03/13 00:16:03;;;;;;;18.77;13.23;;;2.30;99.90;;;;;;4890071;29;20057;-73
2022/03/13 00:18:32;;;;;;;18.05;13.15;;;2.30;99.90;;;;;;4883997;29;20056;-73
2022/03/13 00:21:03;;;;;;;20.63;13.57;;;2.30;99.90;;;;;;4892642;29;20052;-74
2022/03/13 00:23:30;;;;;;;20.50;14.27;;;2.30;99.90;;;;;;4879610;29;20056;-74
2022/03/13 00:25:59;;;;;;;21.73;13.45;;;2.30;99.90;;;;;;4867328;29;20131;-74
2022/03/13 00:28:27;;;;;;;18.35;12.80;;;2.30;99.90;;;;;;4891072;29;20045;-73
2022/03/13 00:30:56;;;;;;;20.83;13.23;;;2.30;99.90;;;;;;4876398;29;20051;-73
2022/03/13 00:33:25;;;;;;;21.08;13.50;;;2.30;99.90;;;;;;4858903;29;20059;-72
2022/03/13 00:35:52;;;;;;;19.83;12.95;;;2.30;99.90;;;;;;4888404;29;20045;-73
2022/03/13 00:38:22;;;;;;;21.25;14.18;;;2.30;99.90;;;;;;4890163;29;20053;-73
2022/03/13 00:40:51;;;;;;;23.60;14.25;;;2.30;99.90;;;;;;4874431;29;20087;-73
2022/03/13 00:43:22;;;;;;;23.40;14.38;;;2.30;99.90;;;;;;4861011;29;20078;-74
2022/03/13 00:45:50;;;;;;;25.27;16.50;;;2.30;99.90;;;;;;4892373;29;20514;-73
2022/03/13 00:48:18;;;;;;;19.20;14.82;;;2.30;99.90;;;;;;4891256;29;20057;-72
2022/03/13 00:50:46;;;;;;;22.30;16.27;;;2.30;99.90;;;;;;4887148;29;20056;-72
2022/03/13 00:53:14;;;;;;;19.92;14.27;;;2.30;99.90;;;;;;4883452;29;20045;-72
2022/03/13 00:55:41;;;;;;;19.00;13.38;;;2.30;99.90;;;;;;4889541;29;20049;-72
2022/03/13 00:58:09;;;;;;;22.33;14.15;;;2.30;99.90;;;;;;4893333;29;20523;-72
2022/03/13 01:00:38;;;;;;;23.25;14.40;;;2.30;99.90;;;;;;4893878;29;20517;-72
2022/03/13 01:03:06;;;;;;;21.60;14.57;;;2.30;99.90;;;;;;4893683;29;20104;-72
2022/03/13 01:05:33;;;;;;;22.38;15.48;;;2.30;99.90;;;;;;4891915;29;20469;-73
2022/03/13 01:08:00;;;;;;;23.80;15.00;;;2.30;99.90;;;;;;4878442;29;20059;-73
2022/03/13 01:10:28;;;;;;;21.83;14.30;;;2.30;99.90;;;;;;4893521;29;20616;-73
2022/03/13 01:12:56;;;;;;;23.48;13.70;;;2.30;99.90;;;;;;4894490;29;20058;-73
2022/03/13 01:15:23;;;;;;;23.45;14.82;;;2.30;99.90;;;;;;4889178;29;20078;-73
2022/03/13 01:17:52;;;;;;;24.15;15.50;;;2.30;99.90;;;;;;4888704;29;20516;-73
2022/03/13 01:20:22;;;;;;;20.02;14.25;;;2.30;99.90;;;;;;4900767;29;20053;-73
2022/03/13 01:22:50;;;;;;;18.75;13.20;;;2.30;99.90;;;;;;4879042;29;20104;-72
2022/03/13 01:25:19;;;;;;;21.95;13.25;;;2.30;99.90;;;;;;4893128;29;20544;-73
2022/03/13 01:27:53;;;;;;;19.10;13.35;;;2.30;99.90;;;;;;4884790;29;20044;-72
2022/03/13 01:30:22;;;;;;;21.95;13.18;;;2.30;99.90;;;;;;4878477;29;20527;-73
2022/03/13 01:32:54;;;;;;;20.95;13.27;;;2.30;99.90;;;;;;4892169;29;20052;-73
2022/03/13 01:35:24;;;;;;;21.23;14.60;;;2.30;99.90;;;;;;4882745;29;20473;-74
2022/03/13 01:37:52;;;;;;;22.83;14.20;;;2.30;99.90;;;;;;4891807;29;20315;-73
2022/03/13 01:40:23;;;;;;;22.85;13.98;;;2.30;99.90;;;;;;4895317;29;20059;-74
2022/03/13 01:42:54;;;;;;;19.63;13.60;;;2.30;99.90;;;;;;4890668;29;20072;-75
2022/03/13 01:45:26;;;;;;;17.20;12.23;;;2.20;99.90;;;;;;4889505;29;20099;-75
2022/03/13 01:47:55;;;;;;;20.17;14.27;;;2.30;99.90;;;;;;4894102;29;20121;-75
2022/03/13 01:50:23;;;;;;;21.15;12.85;;;2.30;99.90;;;;;;4883782;29;20101;-74
2022/03/13 01:52:50;;;;;;;18.20;12.48;;;2.20;99.90;;;;;;4894170;29;20518;-73
2022/03/13 01:55:18;;;;;;;20.90;12.65;;;2.30;99.90;;;;;;4888785;29;20053;-72
2022/03/13 01:57:47;;;;;;;16.30;11.95;;;2.30;99.90;;;;;;4878341;29;20053;-73
2022/03/13 02:00:19;;;;;;;18.90;12.25;;;2.20;99.90;;;;;;4889183;29;20048;-73
2022/03/13 02:02:48;;;;;;;18.55;13.20;;;2.20;99.90;;;;;;4896799;29;20063;-73
2022/03/13 02:05:31;;;;;;;20.38;13.63;;;2.20;99.90;;;;;;4895627;29;20628;-72
2022/03/13 02:07:59;;;;;;;22.52;13.35;;;2.20;99.90;;;;;;4890708;29;20347;-73
2022/03/13 02:10:30;;;;;;;21.88;13.52;;;2.20;99.90;;;;;;4892102;29;20572;-72
2022/03/13 02:12:58;;;;;;;21.88;13.77;;;2.30;99.90;;;;;;4896888;29;20068;-72
2022/03/13 02:15:32;;;;;;;20.85;14.10;;;2.20;99.90;;;;;;4897630;29;20049;-73
2022/03/13 02:18:02;;;;;;;21.10;13.32;;;2.20;99.90;;;;;;4899782;29;20059;-73
2022/03/13 02:20:36;;;;;;;22.38;11.07;;;2.20;99.90;;;;;;4891090;29;20140;-73
2022/03/13 02:23:16;;;;;;;18.00;11.82;;;2.10;99.90;;;;;;4883215;29;20691;-73
2022/03/13 02:25:43;;;;;;;17.63;11.32;;;2.10;99.90;;;;;;4863005;29;20474;-74
2022/03/13 02:28:11;;;;;;;16.90;11.15;;;2.10;99.90;;;;;;4891589;29;20533;-73
2022/03/13 02:30:38;;;;;;;16.95;11.25;;;2.10;99.90;;;;;;4896799;29;20104;-73
2022/03/13 02:33:06;;;;;;;18.00;10.95;;;2.10;99.90;;;;;;4895168;29;20068;-73
2022/03/13 02:35:33;;;;;;;16.05;12.02;;;2.10;99.90;;;;;;4895804;29;20053;-73
2022/03/13 02:38:01;;;;;;;18.67;10.90;;;2.10;99.90;;;;;;4893599;29;20580;-72
2022/03/13 02:40:30;;;;;;;18.73;11.13;;;2.00;99.90;;;;;;4897521;29;20080;-73
2022/03/13 02:42:58;;;;;;;13.73;9.50;;;2.00;99.90;;;;;;4878425;29;20045;-73
2022/03/13 02:45:32;;;;;;;17.88;11.15;;;2.00;99.90;;;;;;4895641;29;20047;-73
2022/03/13 02:48:01;;;;;;;15.07;10.23;;;2.00;99.90;;;;;;4890162;29;20184;-73
2022/03/13 02:50:28;;;;;;;13.30;8.90;;;1.90;99.90;;;;;;4888768;29;20049;-73
2022/03/13 02:52:56;;;;;;;14.73;10.07;;;1.90;99.90;;;;;;4892398;29;20549;-73
2022/03/13 02:55:24;;;;;;;15.57;9.75;;;1.90;99.90;;;;;;4892786;29;20140;-73
2022/03/13 02:57:53;;;;;;;12.18;9.30;;;1.80;99.90;;;;;;4892325;29;20044;-74
2022/03/13 03:00:23;;;;;;;15.65;10.25;;;1.90;99.90;;;;;;4860057;29;20148;-74
2022/03/13 03:02:51;;;;;;;13.68;9.00;;;1.80;99.90;;;;;;4877346;29;20051;-72
2022/03/13 03:05:19;;;;;;;17.02;10.73;;;1.80;99.90;;;;;;4881429;29;20143;-76
2022/03/13 03:07:46;;;;;;;19.42;10.50;;;1.80;99.90;;;;;;4880970;29;20048;-75
2022/03/13 03:10:15;;;;;;;16.65;10.23;;;1.80;99.90;;;;;;4895125;29;20068;-74
2022/03/13 03:12:42;;;;;;;17.30;10.77;;;1.80;99.90;;;;;;4895836;29;20516;-72
2022/03/13 03:15:12;;;;;;;15.82;9.82;;;1.80;99.90;;;;;;4888238;29;20060;-73
2022/03/13 03:17:39;;;;;;;13.23;9.13;;;1.80;99.90;;;;;;4895584;29;20136;-73
2022/03/13 03:20:09;;;;;;;13.57;9.82;;;1.70;99.90;;;;;;4904813;29;20056;-73
2022/03/13 03:22:36;;;;;;;14.18;9.75;;;1.70;99.90;;;;;;4891181;29;20105;-74
2022/03/13 03:25:04;;;;;;;14.18;10.05;;;1.70;99.90;;;;;;4890515;29;20051;-74
2022/03/13 03:27:32;;;;;;;15.93;9.90;;;1.70;99.90;;;;;;4896627;29;20084;-74
2022/03/13 03:30:01;;;;;;;21.42;10.77;;;1.70;99.90;;;;;;4884439;29;20080;-75
2022/03/13 03:32:29;;;;;;;16.15;10.88;;;1.70;99.90;;;;;;4878688;29;20044;-74
2022/03/13 03:34:57;;;;;;;16.52;10.43;;;1.70;99.90;;;;;;4893888;29;20513;-75
2022/03/13 03:37:25;;;;;;;13.73;10.35;;;1.70;99.90;;;;;;4894988;29;20045;-77
2022/03/13 03:39:53;;;;;;;18.58;10.63;;;1.70;99.90;;;;;;4895496;29;20056;-78
2022/03/13 03:42:20;;;;;;;14.73;10.95;;;1.70;99.90;;;;;;4890022;29;20604;-78
2022/03/13 03:44:48;;;;;;;13.75;10.20;;;1.70;99.90;;;;;;4890074;29;20381;-78
2022/03/13 03:47:16;;;;;;;18.90;11.13;;;1.70;99.90;;;;;;4891880;29;20061;-78
2022/03/13 03:49:45;;;;;;;15.98;10.13;;;1.70;99.90;;;;;;4901691;29;20075;-78
2022/03/13 03:52:13;;;;;;;14.80;10.77;;;1.70;99.90;;;;;;4883048;29;20517;-77
2022/03/13 03:54:40;;;;;;;17.00;11.23;;;1.70;99.90;;;;;;4885360;29;20144;-78
2022/03/13 03:57:08;;;;;;;17.10;10.30;;;1.70;99.90;;;;;;4881329;29;20806;-78
2022/03/13 03:59:35;;;;;;;16.13;11.23;;;1.60;99.90;;;;;;4861561;29;20063;-79
2022/03/13 04:02:03;;;;;;;15.75;10.65;;;1.60;99.90;;;;;;4871834;29;20044;-77
2022/03/13 04:04:31;;;;;;;16.80;11.13;;;1.60;99.90;;;;;;4893924;29;20103;-78
2022/03/13 04:06:59;;;;;;;16.88;11.20;;;1.60;99.90;;;;;;4894316;29;20057;-77
2022/03/13 04:09:27;;;;;;;17.42;11.32;;;1.50;99.90;;;;;;4890980;29;20044;-77
2022/03/13 04:11:54;;;;;;;19.08;11.30;;;1.50;99.90;;;;;;4891716;29;20063;-77
2022/03/13 04:14:22;;;;;;;18.35;11.68;;;1.50;99.90;;;;;;4909518;29;20514;-77
2022/03/13 04:16:51;;;;;;;16.27;10.55;;;1.40;99.90;;;;;;4892943;29;20053;-78
2022/03/13 04:19:20;;;;;;;16.02;10.93;;;1.40;99.90;;;;;;4889689;29;20055;-73
2022/03/13 04:21:47;;;;;;;18.95;11.52;;;1.30;99.90;;;;;;4893341;29;20139;-74
2022/03/13 04:24:21;;;;;;;17.02;11.23;;;1.30;99.90;;;;;;4895069;29;20055;-74
2022/03/13 04:26:50;;;;;;;16.25;11.98;;;1.30;99.90;;;;;;4897005;29;20470;-74
2022/03/13 04:29:22;;;;;;;16.15;10.93;;;1.20;99.90;;;;;;4877345;29;20060;-74
2022/03/13 04:31:52;;;;;;;15.55;11.10;;;1.20;99.90;;;;;;4893349;29;20564;-74
2022/03/13 04:34:20;;;;;;;16.13;11.80;;;1.20;99.90;;;;;;4895224;29;20682;-75
2022/03/13 04:36:47;;;;;;;18.45;11.77;;;1.10;99.90;;;;;;4895115;29;20589;-76
2022/03/13 04:39:18;;;;;;;17.20;11.45;;;1.10;99.90;;;;;;4892544;29;20058;-74
2022/03/13 04:41:47;;;;;;;21.13;12.32;;;1.10;99.90;;;;;;4893928;29;20143;-73
2022/03/13 04:44:16;;;;;;;21.83;12.80;;;1.10;99.90;;;;;;4895174;29;20510;-73
2022/03/13 04:46:44;;;;;;;17.60;11.10;;;1.10;99.90;;;;;;4895400;29;20096;-73
2022/03/13 04:49:11;;;;;;;15.90;10.93;;;1.10;99.90;;;;;;4891977;29;20056;-73
2022/03/13 04:51:40;;;;;;;18.75;11.23;;;1.10;99.90;;;;;;4890250;29;20300;-73
2022/03/13 04:54:09;;;;;;;18.45;11.27;;;1.00;99.90;;;;;;4877673;29;20057;-72
2022/03/13 04:56:39;;;;;;;22.08;12.07;;;1.00;99.90;;;;;;4863341;29;20044;-73
2022/03/13 04:59:07;;;;;;;16.33;11.85;;;1.10;99.90;;;;;;4892736;29;20049;-73
2022/03/13 05:01:34;;;;;;;17.13;10.73;;;1.00;99.90;;;;;;4894818;29;20528;-73
2022/03/13 05:04:02;;;;;;;17.30;11.02;;;1.00;99.90;;;;;;4879225;29;20053;-73
2022/03/13 05:06:29;;;;;;;18.95;10.98;;;1.00;99.90;;;;;;4891732;29;20041;-78
2022/03/13 05:08:57;;;;;;;17.02;11.23;;;1.00;99.90;;;;;;4884921;29;20048;-78
2022/03/13 05:11:24;;;;;;;19.75;11.82;;;1.10;99.90;;;;;;4874756;29;20052;-79
2022/03/13 05:13:54;;;;;;;16.85;10.98;;;1.00;99.90;;;;;;4872853;29;20075;-80
2022/03/13 05:16:21;;;;;;;19.02;11.48;;;1.10;99.90;;;;;;4883095;29;20041;-79
2022/03/13 05:18:49;;;;;;;18.67;10.88;;;1.10;99.90;;;;;;4887703;29;20620;-79
2022/03/13 05:21:17;;;;;;;20.60;11.40;;;1.10;99.90;;;;;;4890903;29;20068;-74
2022/03/13 05:23:45;;;;;;;16.73;11.15;;;1.10;99.90;;;;;;4894666;29;20084;-72
2022/03/13 05:26:12;;;;;;;17.90;11.25;;;1.10;99.90;;;;;;4888802;29;20416;-73
2022/03/13 05:28:40;;;;;;;17.52;10.93;;;1.20;99.90;;;;;;4884570;29;20061;-74
2022/03/13 05:31:09;;;;;;;19.35;10.88;;;1.20;99.90;;;;;;4885811;29;20506;-73
2022/03/13 05:33:37;;;;;;;22.35;12.48;;;1.20;99.90;;;;;;4894554;29;20059;-77
2022/03/13 05:36:05;;;;;;;17.83;11.48;;;1.20;99.90;;;;;;4894491;29;20517;-77
2022/03/13 05:38:35;;;;;;;14.60;10.63;;;1.30;99.90;;;;;;4894563;29;20152;-77
2022/03/13 05:41:06;;;;;;;13.85;9.80;;;1.30;99.90;;;;;;4879225;29;20048;-77
2022/03/13 05:43:34;;;;;;;17.67;10.77;;;1.30;99.90;;;;;;4882463;29;20060;-78
2022/03/13 05:46:01;;;;;;;16.55;10.02;;;1.30;99.90;;;;;;4893656;29;20429;-77
2022/03/13 05:48:32;;;;;;;14.55;10.32;;;1.30;99.90;;;;;;4892937;29;20052;-77
2022/03/13 05:51:00;;;;;;;14.07;10.45;;;1.30;99.90;;;;;;4894654;29;20056;-77
2022/03/13 05:53:30;;;;;;;15.95;10.85;;;1.30;99.90;;;;;;4891893;29;20139;-77
2022/03/13 05:56:04;;;;;;;17.30;9.65;;;1.30;99.90;;;;;;4876821;29;20521;-79
2022/03/13 05:58:38;;;;;;;13.90;9.73;;;1.40;99.90;;;;;;4893854;29;20071;-76
2022/03/13 06:01:08;;;;;;;15.20;9.77;;;1.40;99.90;;;;;;4896228;29;20147;-77
2022/03/13 06:04:28;;;;;;;15.30;8.75;;;1.40;99.90;;;;;;4887204;29;20056;-78
2022/03/13 06:06:57;;;;;;;17.38;10.15;;;1.50;99.90;;;;;;4886693;29;20109;-78
2022/03/13 06:09:25;;;;;;;19.33;10.45;;;1.50;99.90;;;;;;4893470;29;20049;-78
2022/03/13 06:11:53;;;;;;;15.43;9.75;;;1.50;99.90;;;;;;4888512;29;20056;-77
2022/03/13 06:14:23;;;;;;;18.02;10.85;;;1.60;99.90;;;;;;4891154;29;20055;-71
2022/03/13 06:16:52;;;;;;;18.25;11.10;;;1.60;99.90;;;;;;4891687;29;20049;-79
2022/03/13 06:19:21;;;;;;;16.80;9.90;;;1.70;99.90;;;;;;4895421;29;20084;-76
2022/03/13 06:21:54;;;;;;;18.85;12.65;;;1.70;99.90;;;;;;4890881;29;20552;-78
2022/03/13 06:24:23;;;;;;;20.10;11.93;;;1.80;99.90;;;;;;4905720;29;20061;-79
2022/03/13 06:26:51;;;;;;;16.75;10.05;;;1.80;99.90;;;;;;4876248;29;20049;-80
2022/03/13 06:29:18;;;;;;;13.65;10.45;;;1.90;99.90;;;;;;4889750;29;20104;-73
2022/03/13 06:31:45;;;;;;;17.58;10.45;;;1.90;99.90;;;;;;4890749;29;20077;-78
2022/03/13 06:34:28;;;;;;;14.57;10.25;;;2.00;99.90;;;;;;4872548;29;20084;-72
2022/03/13 06:36:56;;;;;;;14.82;9.45;;;2.00;99.90;;;;;;4908367;29;20378;-72
2022/03/13 06:39:24;;;;;;;15.65;9.40;;;2.10;99.90;;;;;;4898315;29;20060;-79
2022/03/13 06:41:52;;;;;;;17.55;10.50;;;2.10;99.90;;;;;;4897406;29;20112;-79
2022/03/13 06:44:19;;;;;;;17.00;10.60;;;2.20;99.90;;;;;;4898781;29;20045;-77
2022/03/13 06:46:47;;;;;;;16.10;10.43;;;2.20;99.90;;;;;;4896641;29;20049;-79
2022/03/13 06:49:18;;;;;;;17.73;9.73;;;2.20;99.90;;;;;;4904122;29;20053;-77
2022/03/13 06:51:47;;;;;;;14.50;9.13;;;2.30;99.90;;;;;;4886127;29;20087;-73
2022/03/13 06:54:15;;;;;;;15.75;11.40;;;2.30;99.90;;;;;;4878511;29;20052;-71
2022/03/13 06:56:43;;;;;;;20.55;11.20;;;2.30;99.90;;;;;;4889792;29;20139;-70
2022/03/13 06:59:12;;;;;;;15.27;9.30;;;2.30;99.90;;;;;;4903091;29;20048;-71
2022/03/13 07:01:40;;;;;;;13.85;8.93;;;2.60;99.90;;;;;;4893588;29;20056;-70
2022/03/13 07:04:07;;;;;;;15.27;9.90;;;3.30;99.90;;;;;;4893946;29;20048;-71
2022/03/13 07:06:35;;;;;;;13.98;8.93;;;4.50;99.90;;;;;;4902593;29;20139;-76
2022/03/13 07:09:08;;;;;;;16.38;9.68;;;5.60;99.90;;;;;;4893856;29;20072;-78
2022/03/13 07:11:43;;;;;;;14.15;9.40;;;6.70;99.90;;;;;;4896625;29;20052;-73
2022/03/13 07:14:11;;;;;;;13.55;9.13;;;7.70;99.90;;;;;;4893576;29;20060;-76
2022/03/13 07:16:39;;;;;;;13.43;8.90;;;8.50;99.90;;;;;;4890575;29;20084;-78
2022/03/13 07:19:06;;;;;;;10.93;9.20;;;9.10;99.90;;;;;;4894615;29;20556;-78
2022/03/13 07:21:34;;;;;;;13.77;9.50;;;9.40;99.90;;;;;;4900287;29;20054;-79
2022/03/13 07:24:01;;;;;;;11.07;8.05;;;9.80;95.20;;;;;;4901063;29;20108;-77
2022/03/13 07:26:30;;;;;;;15.57;8.85;;;10.10;94.00;;;;;;4909050;29;20108;-73
2022/03/13 07:28:57;;;;;;;15.93;9.20;;;10.30;93.80;;;;;;4892941;29;20067;-76
2022/03/13 07:31:25;;;;;;;15.82;9.60;;;10.80;90.70;;;;;;4893706;29;20111;-71
2022/03/13 07:34:00;;;;;;;10.63;7.78;;;;;;;;;;4895720;29;20060;-72
2022/03/13 07:36:30;;;;;;;15.15;9.20;;;11.60;81.60;;;;;;4910802;29;20052;-71
2022/03/13 07:38:58;;;;;;;10.32;8.07;;;11.70;80.30;;;;;;4901615;29;20041;-71
2022/03/13 07:41:26;;;;;;;17.63;9.07;;;12.00;77.60;;;;;;4901038;29;20048;-77
2022/03/13 07:43:54;;;;;;;12.85;9.15;;;12.00;76.30;;;;;;4893227;29;20052;-78
2022/03/13 07:46:22;;;;;;;9.93;7.93;;;12.30;75.00;;;;;;4884842;29;20066;-78
2022/03/13 07:48:49;;;;;;;11.15;8.40;;;12.20;74.60;;;;;;4890605;29;20600;-79
2022/03/13 07:51:19;;;;;;;14.65;9.00;;;12.20;73.70;;;;;;4892554;29;20048;-71
2022/03/13 07:53:47;;;;;;;16.98;9.85;;;11.70;74.80;;;;;;4889207;29;20052;-71
2022/03/13 07:56:15;;;;;;;12.63;9.35;;;11.30;75.40;;;;;;4878871;29;20040;-70
2022/03/13 07:58:42;;;;;;;15.63;9.40;;;11.00;77.50;;;;;;4892398;29;20061;-77
2022/03/13 08:01:11;;;;;;;18.33;8.70;;;10.90;78.00;;;;;;4884015;29;20059;-76
2022/03/13 08:03:40;;;;;;;12.23;9.02;;;11.00;79.70;;;;;;4890805;29;20147;-77
2022/03/13 08:06:07;;;;;;;16.77;8.93;;;11.20;79.40;;;;;;4886083;29;20130;-78
2022/03/13 08:08:35;;;;;;;15.10;9.90;;;11.30;77.30;;;;;;4879176;29;20057;-77
2022/03/13 08:11:02;;;;;;;18.25;10.13;;;11.40;76.90;;;;;;4877322;29;20082;-78
2022/03/13 08:13:32;;;;;;;16.38;10.52;;;11.50;77.00;;;;;;4886310;29;20051;-79
2022/03/13 08:15:59;;;;;;;15.48;9.20;;;11.80;74.90;;;;;;4890402;29;20572;-79
2022/03/13 08:18:29;;;;;;;13.60;9.43;;;11.90;74.70;;;;;;4875131;29;20056;-79
2022/03/13 08:20:57;;;;;;;19.98;9.68;;;12.20;74.10;;;;;;4892564;29;20063;-78
2022/03/13 08:23:24;;;;;;;19.10;9.70;;;12.90;71.40;;;;;;4864328;29;20049;-76
2022/03/13 08:25:53;;;;;;;15.77;9.18;;;13.50;68.60;;;;;;4879314;29;20604;-79
2022/03/13 08:28:20;;;;;;;17.45;9.20;;;14.10;65.80;;;;;;4877121;29;20128;-78
2022/03/13 08:30:48;;;;;;;13.75;9.63;;;14.50;64.40;;;;;;4899614;29;20059;-77
2022/03/13 08:33:16;;;;;;;13.45;9.50;;;14.80;62.90;;;;;;4898804;29;20041;-77
2022/03/13 08:35:45;;;;;;;15.63;9.68;;;15.10;62.00;;;;;;4896834;29;20063;-78
2022/03/13 08:38:12;;;;;;;18.77;9.45;;;15.30;61.30;;;;;;4889030;29;20040;-77
2022/03/13 08:40:39;;;;;;;15.18;8.73;;;15.90;60.20;;;;;;4902584;29;20056;-78
2022/03/13 08:43:07;;;;;;;15.43;9.15;;;16.40;58.60;;;;;;4885777;29;20064;-79
2022/03/13 08:45:34;;;;;;;13.93;9.05;;;16.70;57.50;;;;;;4890967;29;20063;-80
2022/03/13 08:48:02;;;;;;;16.63;9.00;;;16.90;57.00;;;;;;4886879;29;20054;-79
2022/03/13 08:50:29;;;;;;;17.73;10.15;;;17.20;56.60;;;;;;4874781;29;20049;-80
2022/03/13 08:52:58;;;;;;;16.67;8.55;;;17.50;55.10;;;;;;4887400;29;20044;-80
2022/03/13 08:55:27;;;;;;;14.05;8.80;;;17.60;54.70;;;;;;4896272;29;20071;-78
2022/03/13 08:57:55;;;;;;;15.10;8.43;;;17.70;53.80;;;;;;4893543;29;20056;-79
2022/03/13 09:00:24;;;;;;;15.30;8.88;;;17.60;53.70;;;;;;4885573;29;20052;-80
2022/03/13 09:02:53;;;;;;;13.68;8.85;;;17.60;53.80;;;;;;4893273;29;20147;-71
2022/03/13 09:05:21;;;;;;;19.08;9.10;;;17.70;53.70;;;;;;4891194;29;20056;-79
2022/03/13 09:07:48;;;;;;;20.70;8.77;;;18.10;53.20;;;;;;4893242;29;20096;-81
2022/03/13 09:10:18;;;;;;;15.85;8.95;;;18.30;52.70;;;;;;4889861;29;20151;-78
2022/03/13 09:12:46;;;;;;;14.80;8.05;;;18.50;52.40;;;;;;4888488;29;20051;-79
2022/03/13 09:15:14;;;;;;;15.88;8.98;;;18.70;51.70;;;;;;4888972;29;20444;-76
2022/03/13 09:17:42;;;;;;;14.52;8.98;;;18.80;51.70;;;;;;4888521;29;20040;-72
2022/03/13 09:20:11;;;;;;;14.85;9.43;;;19.00;51.40;;;;;;4891694;29;20119;-73
2022/03/13 09:22:39;;;;;;;17.33;8.68;;;19.30;50.70;;;;;;4887588;29;20053;-70
2022/03/13 09:25:08;;;;;;;14.65;9.30;;;19.60;50.40;;;;;;4887878;29;20055;-71
2022/03/13 09:27:36;;;;;;;12.88;8.07;;;19.90;49.40;;;;;;4886656;29;20505;-71
2022/03/13 09:30:05;;;;;;;11.43;8.15;;;;;;;;;;4904491;29;20796;-73
2022/03/13 09:32:33;;;;;;;13.88;8.57;;;20.10;48.40;;;;;;4885950;29;20052;-72
2022/03/13 09:35:05;;;;;;;16.85;8.98;;;20.30;48.60;;;;;;4865973;29;20575;-72
2022/03/13 09:37:33;;;;;;;17.65;9.13;;;20.40;48.40;;;;;;4874117;29;20057;-73
2022/03/13 09:40:00;;;;;;;12.50;8.63;;;20.60;48.40;;;;;;4877860;29;20052;-73
2022/03/13 09:42:28;;;;;;;17.35;9.07;;;20.60;47.60;;;;;;4886024;29;20052;-74
2022/03/13 09:44:59;;;;;;;12.60;8.88;;;20.50;47.80;;;;;;4889881;29;20135;-72
2022/03/13 09:47:29;;;;;;;15.68;9.55;;;20.10;47.90;;;;;;4900790;29;20057;-72
2022/03/13 09:49:57;;;;;;;11.98;8.60;;;19.80;48.60;;;;;;4874888;29;20049;-72
2022/03/13 09:52:25;;;;;;;14.85;9.40;;;19.30;48.80;;;;;;4875544;29;20044;-72
2022/03/13 09:54:53;;;;;;;13.75;9.30;;;18.80;49.80;;;;;;4899204;29;20056;-70
2022/03/13 09:57:20;;;;;;;16.50;9.13;;;18.60;50.20;;;;;;4894272;29;20044;-71
2022/03/13 09:59:48;;;;;;;17.02;8.43;;;18.40;50.50;;;;;;4899492;29;20642;-74
2022/03/13 10:02:17;;;;;;;10.85;8.52;;;18.10;50.90;;;;;;4880718;29;20051;-71
2022/03/13 10:04:47;;;;;;;12.98;8.98;;;17.40;52.20;;;;;;4890307;29;20064;-72
2022/03/13 10:07:15;;;;;;;14.82;8.52;;;16.60;53.40;;;;;;4890015;29;20501;-71
2022/03/13 10:09:44;;;;;;;23.05;8.65;;;16.30;54.60;;;;;;4906752;29;20094;-71
2022/03/13 10:12:14;;;;;;;18.40;8.60;;;16.90;53.90;;;;;;4907259;29;20040;-71
2022/03/13 10:15:00;;;;;;;17.77;8.82;;;18.00;52.60;;;;;;4894862;29;20052;-71
2022/03/13 10:17:30;;;;;;;14.52;9.20;;;18.80;50.80;;;;;;4892195;29;20407;-71
2022/03/13 10:20:19;;;;;;;13.27;8.55;;;19.60;50.10;;;;;;4893104;29;20512;-75
2022/03/13 10:22:49;;;;;;;12.55;8.18;;;20.20;48.90;;;;;;4894796;29;20052;-71
2022/03/13 10:25:29;;;;;;;13.13;8.60;;;20.50;47.90;;;;;;4902963;29;20509;-70
2022/03/13 10:28:13;;;;;;;14.10;8.77;;;20.80;47.70;;;;;;4891645;29;20103;-71
2022/03/13 10:30:40;;;;;;;17.50;9.30;;;20.40;47.70;;;;;;4891720;29;20052;-72
2022/03/13 10:33:09;;;;;;;23.95;9.27;;;20.00;48.00;;;;;;4894723;29;20053;-72
2022/03/13 10:35:37;;;;;;;13.00;8.98;;;19.90;48.30;;;;;;4891645;29;20085;-71
2022/03/13 10:38:16;;;;;;;17.48;8.70;;;20.30;48.70;;;;;;4891987;29;20417;-71
2022/03/13 10:40:51;;;;;;;12.88;9.05;;;20.70;47.20;;;;;;4894873;29;20498;-72
2022/03/13 10:43:26;;;;;;;15.48;8.85;;;21.10;46.90;;;;;;4892914;29;20557;-71
2022/03/13 10:45:56;;;;;;;14.55;8.38;;;21.20;46.70;;;;;;4891457;29;20060;-71
2022/03/13 10:48:28;;;;;;;14.98;8.50;;;21.00;46.50;;;;;;4893873;29;20066;-70
2022/03/13 10:51:00;;;;;;;12.85;8.65;;;20.50;47.30;;;;;;4899968;29;20060;-73
2022/03/13 10:53:29;;;;;;;16.23;8.38;;;19.90;48.20;;;;;;4901713;29;20051;-73
2022/03/13 10:56:14;;;;;;;15.05;8.88;;;19.50;48.70;;;;;;4901287;29;20112;-73
2022/03/13 10:58:45;;;;;;;13.38;8.65;;;19.60;48.90;;;;;;4892938;29;20067;-79
2022/03/13 11:01:16;;;;;;;12.63;8.80;;;19.90;48.50;;;;;;4894892;29;20052;-79
2022/03/13 11:03:52;;;;;;;17.38;8.75;;;19.90;47.60;;;;;;4893234;29;20063;-78
2022/03/13 11:06:22;;;;;;;17.05;8.73;;;19.80;49.00;;;;;;4892197;29;20425;-77
2022/03/13 11:08:53;;;;;;;16.85;9.18;;;19.80;49.50;;;;;;4894724;29;20223;-74
2022/03/13 11:11:21;;;;;;;14.32;8.98;;;19.80;47.90;;;;;;4892998;29;20100;-75
2022/03/13 11:13:54;;;;;;;16.88;9.43;;;19.80;48.90;;;;;;4894451;29;20053;-77
2022/03/13 11:16:24;;;;;;;16.52;9.85;;;19.30;48.80;;;;;;4894331;29;20056;-76
2022/03/13 11:18:55;;;;;;;17.35;9.45;;;19.20;49.60;;;;;;4907896;29;20048;-69
2022/03/13 11:21:25;;;;;;;17.42;9.50;;;18.70;49.90;;;;;;4892297;29;20056;-71
2022/03/13 11:23:53;;;;;;;14.13;9.23;;;18.10;50.90;;;;;;4894969;29;20055;-71
2022/03/13 11:26:29;;;;;;;15.50;9.30;;;18.20;51.10;;;;;;4891058;29;20525;-70
2022/03/13 11:28:57;;;;;;;14.07;9.57;;;18.60;50.50;;;;;;4892010;29;20062;-69
2022/03/13 11:31:36;;;;;;;15.43;9.45;;;18.80;50.30;;;;;;4893112;29;20048;-70
2022/03/13 11:34:16;;;;;;;17.10;10.00;;;19.20;49.90;;;;;;4892098;29;20048;-71
2022/03/13 11:36:44;;;;;;;16.42;8.80;;;19.50;49.40;;;;;;4890623;29;20080;-72
2022/03/13 11:39:14;;;;;;;11.80;9.10;;;19.80;49.00;;;;;;4876159;29;20057;-70
2022/03/13 11:41:44;;;;;;;15.05;9.30;;;20.30;48.30;;;;;;4894030;29;20061;-70
2022/03/13 11:44:38;;;;;;;11.43;8.25;;;20.60;47.20;;;;;;4892107;29;20053;-70
2022/03/13 11:47:25;;;;;;;19.50;8.32;;;20.70;46.10;;;;;;4857837;29;20060;-70
2022/03/13 11:49:54;;;;;;;13.20;7.63;;;20.90;46.40;;;;;;4907485;29;20048;-70
2022/03/13 11:52:33;;;;;;;17.92;8.38;;;21.20;45.10;;;;;;4891154;29;20061;-70
2022/03/13 11:55:11;;;;;;;14.60;8.43;;;21.30;44.80;;;;;;4886217;29;20542;-70
2022/03/13 11:57:45;;;;;;;18.73;8.20;;;21.30;44.20;;;;;;4893166;29;20049;-74
2022/03/13 12:00:34;;;;;;;15.43;7.85;;;21.10;44.40;;;;;;4893565;29;20048;-79
2022/03/13 12:03:13;;;;;;;16.65;8.05;;;20.90;43.90;;;;;;4891292;29;20386;-70
2022/03/13 12:05:55;;;;;;;16.52;8.15;;;21.10;43.70;;;;;;4886735;29;20048;-69
2022/03/13 12:08:28;;;;;;;11.68;7.10;;;20.90;43.50;;;;;;4884837;29;20067;-69
2022/03/13 12:10:56;;;;;;;13.82;7.57;;;20.80;43.50;;;;;;4891367;29;20067;-69
2022/03/13 12:13:31;;;;;;;15.65;8.23;;;20.50;43.80;;;;;;4888126;29;20144;-70
2022/03/13 12:16:12;;;;;;;13.25;7.10;;;20.20;44.10;;;;;;4882643;29;20121;-71
2022/03/13 12:18:39;;;;;;;11.63;7.05;;;20.40;43.80;;;;;;4879611;29;20076;-68
2022/03/13 12:21:10;;;;;;;15.40;7.05;;;20.50;43.40;;;;;;4889583;29;20084;-69
2022/03/13 12:23:39;;;;;;;14.98;7.28;;;20.50;42.40;;;;;;4891188;29;20083;-71
2022/03/13 12:26:18;;;;;;;16.00;7.78;;;20.90;42.30;;;;;;4890781;29;20414;-70
2022/03/13 12:28:46;;;;;;;9.40;6.78;;;21.10;41.60;;;;;;4892604;29;20112;-70
2022/03/13 12:31:14;;;;;;;8.55;6.78;;;21.30;41.60;;;;;;4908125;29;20087;-71
2022/03/13 12:33:46;;;;;;;10.30;6.93;;;21.40;41.30;;;;;;4889590;29;20470;-70
2022/03/13 12:36:16;;;;;;;12.90;7.85;;;21.20;40.70;;;;;;4891700;29;20056;-69
2022/03/13 12:38:49;;;;;;;12.38;7.85;;;21.00;39.90;;;;;;4873189;29;20049;-70
2022/03/13 12:41:17;;;;;;;11.73;6.18;;;20.60;40.80;;;;;;4898833;29;20489;-69
2022/03/13 12:43:53;;;;;;;13.77;6.93;;;20.20;41.00;;;;;;4888310;29;20150;-69
2022/03/13 12:46:22;;;;;;;12.52;6.88;;;19.40;41.80;;;;;;4885160;29;20509;-70
2022/03/13 12:48:53;;;;;;;11.50;6.15;;;18.70;42.90;;;;;;4884286;29;20080;-70
2022/03/13 12:51:44;;;;;;;16.27;7.28;;;18.10;44.00;;;;;;4893643;29;20667;-70